createdAt,value
2019-03-11T00:00:31.417Z,0
2019-03-11T00:01:31.183Z,0
2019-03-11T00:02:31.171Z,0
2019-03-11T00:03:30.632Z,0
2019-03-11T00:04:33.610Z,0
2019-03-11T00:05:31.241Z,0
2019-03-11T00:06:31.372Z,0
2019-03-11T00:07:31.333Z,0
2019-03-11T00:08:30.857Z,0
2019-03-11T00:09:31.087Z,0
2019-03-11T00:10:31.062Z,0
2019-03-11T00:11:30.849Z,0
2019-03-11T00:12:31.066Z,0
2019-03-11T00:13:30.810Z,0
2019-03-11T00:14:31.062Z,0
2019-03-11T00:15:30.877Z,0
2019-03-11T00:16:31.024Z,0
2019-03-11T00:17:30.764Z,0
2019-03-11T00:18:31.011Z,0
2019-03-11T00:19:31.013Z,0
2019-03-11T00:20:31.020Z,0
2019-03-11T00:21:31.233Z,0
2019-03-11T00:22:30.957Z,0
2019-03-11T00:23:30.457Z,0
2019-03-11T00:24:31.233Z,0
2019-03-11T00:25:31.186Z,0
2019-03-11T00:26:30.944Z,0
2019-03-11T00:27:30.972Z,0
2019-03-11T00:28:30.459Z,0
2019-03-11T00:29:30.397Z,0
2019-03-11T00:30:30.931Z,0
2019-03-11T00:31:30.688Z,0
2019-03-11T00:32:31.215Z,0
2019-03-11T00:33:30.380Z,0
2019-03-11T00:34:30.936Z,0
2019-03-11T00:35:31.220Z,0
2019-03-11T00:36:30.872Z,0
2019-03-11T00:37:31.090Z,0
2019-03-11T00:38:31.088Z,0
2019-03-11T00:39:31.102Z,0
2019-03-11T00:40:30.829Z,0
2019-03-11T00:41:30.315Z,0
2019-03-11T00:42:30.540Z,0
2019-03-11T00:43:30.542Z,0
2019-03-11T00:44:30.292Z,0
2019-03-11T00:45:33.635Z,0
2019-03-11T00:46:30.768Z,0
2019-03-11T00:47:30.515Z,0
2019-03-11T00:48:30.802Z,0
2019-03-11T00:49:30.518Z,0
2019-03-11T00:50:30.735Z,0
2019-03-11T00:51:30.973Z,0
2019-03-11T00:52:31.131Z,0
2019-03-11T00:53:30.704Z,0
2019-03-11T00:54:30.740Z,0
2019-03-11T00:55:30.468Z,0
2019-03-11T00:56:30.705Z,0
2019-03-11T00:57:30.967Z,0
2019-03-11T00:58:30.736Z,0
2019-03-11T00:59:30.665Z,0
2019-03-11T01:00:30.915Z,0
2019-03-11T01:01:30.517Z,0
2019-03-11T01:02:30.954Z,0
2019-03-11T01:03:30.641Z,0
2019-03-11T01:04:31.214Z,0
2019-03-11T01:05:30.375Z,0
2019-03-11T01:06:30.643Z,0
2019-03-11T01:07:30.590Z,0
2019-03-11T01:08:31.541Z,0
2019-03-11T01:09:30.586Z,0
2019-03-11T01:10:30.804Z,0
2019-03-11T01:11:30.311Z,0
2019-03-11T01:12:30.302Z,0
2019-03-11T01:13:30.540Z,0
2019-03-11T01:14:30.287Z,0
2019-03-11T01:15:30.031Z,0
2019-03-11T01:16:30.539Z,0
2019-03-11T01:17:30.507Z,0
2019-03-11T01:18:30.532Z,0
2019-03-11T01:19:30.772Z,0
2019-03-11T01:20:30.552Z,0
2019-03-11T01:21:29.960Z,0
2019-03-11T01:22:30.482Z,0
2019-03-11T01:23:30.706Z,0
2019-03-11T01:24:30.464Z,0
2019-03-11T01:25:30.439Z,0
2019-03-11T01:26:29.938Z,0
2019-03-11T01:27:30.739Z,0
2019-03-11T01:28:30.661Z,0
2019-03-11T01:29:30.668Z,0
2019-03-11T01:30:30.402Z,0
2019-03-11T01:31:30.628Z,0
2019-03-11T01:32:30.695Z,0
2019-03-11T01:33:30.470Z,0
2019-03-11T01:34:31.169Z,0
2019-03-11T01:35:30.101Z,0
2019-03-11T01:36:29.829Z,0
2019-03-11T01:37:29.862Z,0
2019-03-11T01:38:30.570Z,0
2019-03-11T01:39:30.584Z,0
2019-03-11T01:40:30.075Z,0
2019-03-11T01:41:30.307Z,0
2019-03-11T01:42:30.036Z,0
2019-03-11T01:43:30.287Z,0
2019-03-11T01:44:30.009Z,0
2019-03-11T01:45:30.111Z,0
2019-03-11T01:46:29.986Z,0
2019-03-11T01:47:30.286Z,0
2019-03-11T01:48:29.963Z,0
2019-03-11T01:49:31.012Z,0
2019-03-11T01:50:30.489Z,0
2019-03-11T01:51:30.213Z,0
2019-03-11T01:52:29.952Z,0
2019-03-11T01:53:30.190Z,0
2019-03-11T01:54:29.940Z,0
2019-03-11T01:55:29.913Z,0
2019-03-11T01:56:29.954Z,0
2019-03-11T01:57:30.421Z,0
2019-03-11T01:58:30.047Z,0
2019-03-11T01:59:30.390Z,0
2019-03-11T02:00:30.378Z,0
2019-03-11T02:01:29.847Z,0
2019-03-11T02:02:29.868Z,0
2019-03-11T02:03:30.125Z,0
2019-03-11T02:04:30.114Z,0
2019-03-11T02:05:29.845Z,0
2019-03-11T02:06:30.108Z,0
2019-03-11T02:07:29.847Z,0
2019-03-11T02:08:30.051Z,0
2019-03-11T02:09:30.316Z,0
2019-03-11T02:10:30.028Z,0
2019-03-11T02:11:30.281Z,0
2019-03-11T02:12:29.785Z,0
2019-03-11T02:13:29.518Z,0
2019-03-11T02:14:29.760Z,0
2019-03-11T02:15:29.998Z,0
2019-03-11T02:16:29.737Z,0
2019-03-11T02:17:29.970Z,0
2019-03-11T02:18:29.714Z,0
2019-03-11T02:19:29.978Z,0
2019-03-11T02:20:29.458Z,0
2019-03-11T02:21:30.228Z,0
2019-03-11T02:22:29.958Z,0
2019-03-11T02:23:30.182Z,0
2019-03-11T02:24:29.955Z,0
2019-03-11T02:25:29.890Z,0
2019-03-11T02:26:30.128Z,0
2019-03-11T02:27:29.393Z,0
2019-03-11T02:28:29.655Z,0
2019-03-11T02:29:29.624Z,0
2019-03-11T02:30:29.933Z,0
2019-03-11T02:31:30.110Z,0
2019-03-11T02:32:33.165Z,0
2019-03-11T02:33:30.228Z,0
2019-03-11T02:34:30.380Z,0
2019-03-11T02:35:29.596Z,0
2019-03-11T02:36:30.121Z,0
2019-03-11T02:37:30.157Z,0
2019-03-11T02:38:29.544Z,0
2019-03-11T02:39:29.768Z,0
2019-03-11T02:40:29.552Z,0
2019-03-11T02:41:30.058Z,0
2019-03-11T02:42:29.770Z,0
2019-03-11T02:43:29.781Z,0
2019-03-11T02:44:30.106Z,0
2019-03-11T02:45:29.572Z,0
2019-03-11T02:46:29.479Z,0
2019-03-11T02:47:29.729Z,0
2019-03-11T02:48:29.979Z,0
2019-03-11T02:49:29.457Z,0
2019-03-11T02:50:29.962Z,0
2019-03-11T02:51:29.742Z,0
2019-03-11T02:52:29.696Z,0
2019-03-11T02:53:29.935Z,0
2019-03-11T02:54:29.923Z,0
2019-03-11T02:55:29.619Z,0
2019-03-11T02:56:29.671Z,0
2019-03-11T02:57:29.379Z,0
2019-03-11T02:58:29.946Z,0
2019-03-11T02:59:29.923Z,0
2019-03-11T03:00:29.360Z,0
2019-03-11T03:01:29.632Z,0
2019-03-11T03:02:29.625Z,0
2019-03-11T03:03:29.626Z,0
2019-03-11T03:04:30.018Z,0
2019-03-11T03:05:29.086Z,0
2019-03-11T03:06:29.324Z,0
2019-03-11T03:07:29.552Z,0
2019-03-11T03:08:29.598Z,0
2019-03-11T03:09:31.750Z,0
2019-03-11T03:10:29.547Z,0
2019-03-11T03:11:29.029Z,0
2019-03-11T03:12:29.772Z,0
2019-03-11T03:13:29.750Z,0
2019-03-11T03:14:29.366Z,0
2019-03-11T03:15:29.289Z,0
2019-03-11T03:16:29.065Z,0
2019-03-11T03:17:29.556Z,0
2019-03-11T03:18:29.484Z,0
2019-03-11T03:19:29.171Z,0
2019-03-11T03:20:29.532Z,0
2019-03-11T03:21:29.192Z,0
2019-03-11T03:22:29.164Z,0
2019-03-11T03:23:29.302Z,0
2019-03-11T03:24:29.417Z,0
2019-03-11T03:25:43.004Z,0
2019-03-11T03:26:29.180Z,0
2019-03-11T03:27:29.609Z,0
2019-03-11T03:28:29.615Z,0
2019-03-11T03:29:29.661Z,0
2019-03-11T03:30:29.451Z,0
2019-03-11T03:31:29.611Z,0
2019-03-11T03:32:29.109Z,0
2019-03-11T03:33:29.472Z,0
2019-03-11T03:34:34.729Z,0
2019-03-11T03:35:29.135Z,0
2019-03-11T03:36:29.362Z,0
2019-03-11T03:37:29.525Z,0
2019-03-11T03:38:40.145Z,0
2019-03-11T03:39:29.258Z,0
2019-03-11T03:40:29.481Z,0
2019-03-11T03:41:29.031Z,0
2019-03-11T03:42:29.503Z,0
2019-03-11T03:43:29.261Z,0
2019-03-11T03:44:29.421Z,0
2019-03-11T03:45:29.515Z,0
2019-03-11T03:46:29.228Z,0
2019-03-11T03:47:29.522Z,0
2019-03-11T03:48:29.880Z,0
2019-03-11T03:49:29.136Z,0
2019-03-11T03:50:29.473Z,0
2019-03-11T03:51:28.444Z,0
2019-03-11T03:52:29.427Z,0
2019-03-11T03:53:29.169Z,0
2019-03-11T03:54:29.159Z,0
2019-03-11T03:55:29.132Z,0
2019-03-11T03:56:29.136Z,0
2019-03-11T03:57:28.882Z,0
2019-03-11T03:58:29.377Z,0
2019-03-11T03:59:29.377Z,0
2019-03-11T04:00:28.599Z,0
2019-03-11T04:01:29.106Z,0
2019-03-11T04:02:29.352Z,0
2019-03-11T04:03:28.830Z,0
2019-03-11T04:04:29.066Z,0
2019-03-11T04:05:29.340Z,0
2019-03-11T04:06:29.097Z,0
2019-03-11T04:07:28.812Z,0
2019-03-11T04:08:28.775Z,0
2019-03-11T04:09:29.033Z,0
2019-03-11T04:10:32.116Z,0
2019-03-11T04:11:28.518Z,0
2019-03-11T04:12:29.008Z,0
2019-03-11T04:13:28.352Z,0
2019-03-11T04:14:29.270Z,0
2019-03-11T04:15:29.256Z,0
2019-03-11T04:16:28.973Z,0
2019-03-11T04:17:28.842Z,0
2019-03-11T04:18:28.687Z,0
2019-03-11T04:19:31.998Z,0
2019-03-11T04:20:28.960Z,0
2019-03-11T04:21:28.553Z,0
2019-03-11T04:22:28.652Z,0
2019-03-11T04:23:28.916Z,0
2019-03-11T04:24:29.156Z,0
2019-03-11T04:25:28.972Z,0
2019-03-11T04:26:28.384Z,0
2019-03-11T04:27:28.874Z,0
2019-03-11T04:28:28.600Z,0
2019-03-11T04:29:29.095Z,0
2019-03-11T04:30:28.609Z,0
2019-03-11T04:31:28.851Z,0
2019-03-11T04:32:28.822Z,0
2019-03-11T04:33:28.823Z,0
2019-03-11T04:34:29.054Z,0
2019-03-11T04:35:29.436Z,0
2019-03-11T04:36:28.862Z,0
2019-03-11T04:37:28.782Z,0
2019-03-11T04:38:28.263Z,0
2019-03-11T04:39:28.741Z,0
2019-03-11T04:40:28.530Z,0
2019-03-11T04:41:28.235Z,0
2019-03-11T04:42:28.481Z,0
2019-03-11T04:43:28.484Z,0
2019-03-11T04:44:28.774Z,0
2019-03-11T04:45:29.030Z,0
2019-03-11T04:46:28.483Z,0
2019-03-11T04:47:28.678Z,0
2019-03-11T04:48:28.431Z,0
2019-03-11T04:49:28.708Z,0
2019-03-11T04:50:28.429Z,0
2019-03-11T04:51:28.404Z,0
2019-03-11T04:52:28.655Z,0
2019-03-11T04:53:28.689Z,0
2019-03-11T04:54:28.677Z,0
2019-03-11T04:55:28.428Z,0
2019-03-11T04:56:28.910Z,0
2019-03-11T04:57:30.482Z,0
2019-03-11T04:58:28.362Z,0
2019-03-11T04:59:28.834Z,0
2019-03-11T05:00:28.832Z,0
2019-03-11T05:01:28.836Z,0
2019-03-11T05:02:28.584Z,0
2019-03-11T05:03:28.577Z,0
2019-03-11T05:04:28.541Z,0
2019-03-11T05:05:29.403Z,0
2019-03-11T05:06:28.152Z,0
2019-03-11T05:07:28.268Z,0
2019-03-11T05:08:28.515Z,0
2019-03-11T05:09:28.737Z,0
2019-03-11T05:10:28.502Z,0
2019-03-11T05:11:28.258Z,0
2019-03-11T05:12:28.237Z,0
2019-03-11T05:13:28.464Z,0
2019-03-11T05:14:28.461Z,0
2019-03-11T05:15:28.431Z,0
2019-03-11T05:16:28.456Z,0
2019-03-11T05:17:28.680Z,0
2019-03-11T05:18:28.672Z,0
2019-03-11T05:19:28.409Z,0
2019-03-11T05:20:28.009Z,0
2019-03-11T05:21:28.404Z,0
2019-03-11T05:22:28.673Z,0
2019-03-11T05:23:28.391Z,0
2019-03-11T05:24:28.416Z,0
2019-03-11T05:25:28.694Z,0
2019-03-11T05:26:27.853Z,0
2019-03-11T05:27:28.086Z,0
2019-03-11T05:28:27.817Z,0
2019-03-11T05:29:28.627Z,0
2019-03-11T05:30:28.350Z,0
2019-03-11T05:31:28.563Z,0
2019-03-11T05:32:28.349Z,0
2019-03-11T05:33:28.569Z,0
2019-03-11T05:34:27.841Z,0
2019-03-11T05:35:28.836Z,0
2019-03-11T05:36:28.051Z,0
2019-03-11T05:37:28.483Z,0
2019-03-11T05:38:28.013Z,0
2019-03-11T05:39:28.644Z,0
2019-03-11T05:40:28.338Z,0
2019-03-11T05:41:28.489Z,0
2019-03-11T05:42:28.470Z,0
2019-03-11T05:43:27.944Z,0
2019-03-11T05:44:28.439Z,0
2019-03-11T05:45:28.209Z,0
2019-03-11T05:46:27.661Z,0
2019-03-11T05:47:28.405Z,0
2019-03-11T05:48:27.884Z,0
2019-03-11T05:49:28.144Z,0
2019-03-11T05:50:28.400Z,0
2019-03-11T05:51:37.928Z,0
2019-03-11T05:52:28.404Z,0
2019-03-11T05:53:28.118Z,0
2019-03-11T05:54:28.347Z,0
2019-03-11T05:55:28.325Z,0
2019-03-11T05:56:28.093Z,5
2019-03-11T05:57:27.845Z,5
2019-03-11T05:58:27.574Z,5
2019-03-11T05:59:27.848Z,5
2019-03-11T06:00:28.287Z,5
2019-03-11T06:01:27.790Z,5
2019-03-11T06:02:28.076Z,5
2019-03-11T06:03:28.027Z,5
2019-03-11T06:04:27.767Z,10
2019-03-11T06:05:28.283Z,10
2019-03-11T06:06:27.223Z,10
2019-03-11T06:07:28.201Z,10
2019-03-11T06:08:28.219Z,10
2019-03-11T06:09:27.722Z,15
2019-03-11T06:10:27.973Z,15
2019-03-11T06:11:28.183Z,15
2019-03-11T06:12:28.166Z,15
2019-03-11T06:13:37.879Z,20
2019-03-11T06:14:28.158Z,20
2019-03-11T06:15:27.667Z,25
2019-03-11T06:16:27.646Z,30
2019-03-11T06:17:28.158Z,30
2019-03-11T06:18:27.620Z,35
2019-03-11T06:19:27.910Z,35
2019-03-11T06:20:27.908Z,35
2019-03-11T06:21:28.096Z,35
2019-03-11T06:22:27.587Z,35
2019-03-11T06:23:27.319Z,30
2019-03-11T06:24:30.302Z,30
2019-03-11T06:25:27.985Z,30
2019-03-11T06:26:28.048Z,30
2019-03-11T06:27:27.849Z,30
2019-03-11T06:28:27.775Z,30
2019-03-11T06:29:39.036Z,30
2019-03-11T06:30:27.543Z,30
2019-03-11T06:31:27.777Z,35
2019-03-11T06:32:28.002Z,35
2019-03-11T06:33:27.726Z,35
2019-03-11T06:34:27.754Z,40
2019-03-11T06:35:27.764Z,40
2019-03-11T06:36:28.287Z,40
2019-03-11T06:37:27.466Z,45
2019-03-11T06:38:27.762Z,40
2019-03-11T06:39:27.808Z,40
2019-03-11T06:40:27.948Z,45
2019-03-11T06:41:27.676Z,45
2019-03-11T06:42:27.157Z,45
2019-03-11T06:43:28.087Z,45
2019-03-11T06:44:27.408Z,45
2019-03-11T06:45:27.373Z,45
2019-03-11T06:46:26.875Z,45
2019-03-11T06:47:27.369Z,45
2019-03-11T06:48:27.861Z,45
2019-03-11T06:49:27.336Z,45
2019-03-11T06:50:27.846Z,45
2019-03-11T06:51:27.315Z,50
2019-03-11T06:52:27.588Z,50
2019-03-11T06:53:27.814Z,50
2019-03-11T06:54:27.554Z,45
2019-03-11T06:55:27.534Z,45
2019-03-11T06:56:27.272Z,45
2019-03-11T06:57:27.274Z,45
2019-03-11T06:58:27.515Z,45
2019-03-11T06:59:27.621Z,45
2019-03-11T07:00:27.334Z,45
2019-03-11T07:01:27.491Z,45
2019-03-11T07:02:26.980Z,45
2019-03-11T07:03:26.736Z,45
2019-03-11T07:04:27.327Z,45
2019-03-11T07:05:29.596Z,45
2019-03-11T07:06:29.152Z,50
2019-03-11T07:07:27.201Z,50
2019-03-11T07:08:27.669Z,55
2019-03-11T07:09:27.612Z,55
2019-03-11T07:10:27.278Z,60
2019-03-11T07:11:27.139Z,60
2019-03-11T07:12:27.151Z,65
2019-03-11T07:13:27.408Z,65
2019-03-11T07:14:27.119Z,65
2019-03-11T07:15:27.348Z,65
2019-03-11T07:16:27.628Z,70
2019-03-11T07:17:27.354Z,70
2019-03-11T07:18:27.124Z,70
2019-03-11T07:19:27.086Z,70
2019-03-11T07:20:27.334Z,65
2019-03-11T07:21:26.812Z,65
2019-03-11T07:22:27.078Z,65
2019-03-11T07:23:27.050Z,65
2019-03-11T07:24:27.291Z,65
2019-03-11T07:25:26.807Z,65
2019-03-11T07:26:26.819Z,65
2019-03-11T07:27:30.058Z,65
2019-03-11T07:28:27.285Z,60
2019-03-11T07:29:27.548Z,60
2019-03-11T07:30:27.596Z,60
2019-03-11T07:31:26.476Z,55
2019-03-11T07:32:27.212Z,50
2019-03-11T07:33:26.722Z,45
2019-03-11T07:34:26.967Z,45
2019-03-11T07:35:26.724Z,50
2019-03-11T07:36:27.760Z,50
2019-03-11T07:37:27.612Z,50
2019-03-11T07:38:26.939Z,55
2019-03-11T07:39:27.150Z,60
2019-03-11T07:40:39.013Z,70
2019-03-11T07:41:27.398Z,75
2019-03-11T07:42:27.404Z,70
2019-03-11T07:43:26.412Z,65
2019-03-11T07:44:26.659Z,65
2019-03-11T07:45:27.368Z,60
2019-03-11T07:46:26.596Z,60
2019-03-11T07:47:26.609Z,60
2019-03-11T07:48:27.098Z,55
2019-03-11T07:49:27.083Z,50
2019-03-11T07:50:27.083Z,50
2019-03-11T07:51:27.297Z,50
2019-03-11T07:52:26.790Z,45
2019-03-11T07:53:27.087Z,40
2019-03-11T07:54:37.804Z,40
2019-03-11T07:55:26.602Z,40
2019-03-11T07:56:26.761Z,40
2019-03-11T07:57:27.273Z,40
2019-03-11T07:58:26.789Z,45
2019-03-11T07:59:26.481Z,50
2019-03-11T08:00:26.485Z,50
2019-03-11T08:01:26.959Z,45
2019-03-11T08:02:27.583Z,45
2019-03-11T08:03:26.947Z,40
2019-03-11T08:04:27.184Z,40
2019-03-11T08:05:27.204Z,40
2019-03-11T08:06:29.616Z,45
2019-03-11T08:07:27.548Z,50
2019-03-11T08:08:26.937Z,55
2019-03-11T08:09:37.173Z,55
2019-03-11T08:10:26.958Z,50
2019-03-11T08:11:26.617Z,35
2019-03-11T08:12:26.888Z,30
2019-03-11T08:13:26.605Z,30
2019-03-11T08:14:26.652Z,30
2019-03-11T08:15:26.994Z,30
2019-03-11T08:16:26.606Z,30
2019-03-11T08:17:26.325Z,25
2019-03-11T08:18:36.836Z,25
2019-03-11T08:19:26.789Z,30
2019-03-11T08:20:26.613Z,30
2019-03-11T08:21:26.657Z,30
2019-03-11T08:22:26.836Z,40
2019-03-11T08:23:26.512Z,60
2019-03-11T08:24:26.516Z,85
2019-03-11T08:25:26.776Z,110
2019-03-11T08:26:26.478Z,140
2019-03-11T08:27:26.522Z,160
2019-03-11T08:28:26.763Z,165
2019-03-11T08:29:26.825Z,170
2019-03-11T08:30:26.786Z,195
2019-03-11T08:31:26.209Z,180
2019-03-11T08:32:26.501Z,170
2019-03-11T08:33:26.664Z,215
2019-03-11T08:34:26.670Z,230
2019-03-11T08:35:26.150Z,230
2019-03-11T08:36:26.393Z,245
2019-03-11T08:37:26.632Z,250
2019-03-11T08:38:26.637Z,250
2019-03-11T08:39:26.461Z,250
2019-03-11T08:40:26.383Z,255
2019-03-11T08:41:26.610Z,255
2019-03-11T08:42:26.365Z,265
2019-03-11T08:43:26.580Z,270
2019-03-11T08:44:26.813Z,280
2019-03-11T08:45:26.821Z,295
2019-03-11T08:46:26.541Z,305
2019-03-11T08:47:26.355Z,325
2019-03-11T08:48:26.561Z,335
2019-03-11T08:49:26.532Z,350
2019-03-11T08:50:26.509Z,335
2019-03-11T08:51:26.291Z,330
2019-03-11T08:52:26.766Z,315
2019-03-11T08:53:26.505Z,290
2019-03-11T08:54:26.495Z,275
2019-03-11T08:55:26.059Z,265
2019-03-11T08:56:25.960Z,265
2019-03-11T08:57:26.228Z,250
2019-03-11T08:58:26.783Z,250
2019-03-11T08:59:26.448Z,245
2019-03-11T09:00:26.890Z,240
2019-03-11T09:01:26.185Z,235
2019-03-11T09:02:26.661Z,235
2019-03-11T09:03:26.445Z,235
2019-03-11T09:04:26.408Z,235
2019-03-11T09:05:26.424Z,240
2019-03-11T09:06:26.682Z,285
2019-03-11T09:07:28.295Z,275
2019-03-11T09:08:25.882Z,275
2019-03-11T09:09:26.682Z,285
2019-03-11T09:10:26.428Z,275
2019-03-11T09:11:26.157Z,250
2019-03-11T09:12:26.115Z,240
2019-03-11T09:13:26.177Z,240
2019-03-11T09:14:26.192Z,230
2019-03-11T09:15:25.876Z,230
2019-03-11T09:16:26.333Z,245
2019-03-11T09:17:26.377Z,255
2019-03-11T09:18:26.338Z,265
2019-03-11T09:19:26.319Z,275
2019-03-11T09:20:26.338Z,265
2019-03-11T09:21:26.343Z,250
2019-03-11T09:22:26.303Z,245
2019-03-11T09:23:26.531Z,240
2019-03-11T09:24:28.896Z,235
2019-03-11T09:25:26.342Z,225
2019-03-11T09:26:26.525Z,220
2019-03-11T09:27:26.013Z,220
2019-03-11T09:28:27.073Z,215
2019-03-11T09:29:26.027Z,210
2019-03-11T09:30:26.536Z,205
2019-03-11T09:31:26.506Z,210
2019-03-11T09:32:28.668Z,220
2019-03-11T09:33:26.026Z,235
2019-03-11T09:34:26.484Z,250
2019-03-11T09:35:26.493Z,260
2019-03-11T09:36:26.206Z,255
2019-03-11T09:37:30.262Z,260
2019-03-11T09:38:26.253Z,275
2019-03-11T09:39:26.536Z,280
2019-03-11T09:40:25.986Z,280
2019-03-11T09:41:25.941Z,280
2019-03-11T09:42:26.223Z,280
2019-03-11T09:43:27.133Z,280
2019-03-11T09:44:26.414Z,285
2019-03-11T09:45:28.696Z,295
2019-03-11T09:46:26.125Z,300
2019-03-11T09:47:26.130Z,305
2019-03-11T09:48:26.406Z,300
2019-03-11T09:49:26.436Z,280
2019-03-11T09:50:26.468Z,265
2019-03-11T09:51:25.861Z,270
2019-03-11T09:52:26.364Z,285
2019-03-11T09:53:25.849Z,290
2019-03-11T09:54:25.833Z,275
2019-03-11T09:55:25.861Z,270
2019-03-11T09:56:25.835Z,270
2019-03-11T09:57:25.834Z,265
2019-03-11T09:58:25.558Z,265
2019-03-11T09:59:26.052Z,265
2019-03-11T10:00:26.164Z,265
2019-03-11T10:01:26.223Z,275
2019-03-11T10:02:25.789Z,270
2019-03-11T10:03:25.357Z,255
2019-03-11T10:04:26.278Z,275
2019-03-11T10:05:26.020Z,290
2019-03-11T10:06:26.252Z,295
2019-03-11T10:07:25.784Z,295
2019-03-11T10:08:29.161Z,290
2019-03-11T10:09:26.276Z,275
2019-03-11T10:10:26.133Z,265
2019-03-11T10:11:26.277Z,275
2019-03-11T10:12:25.732Z,285
2019-03-11T10:13:27.618Z,275
2019-03-11T10:14:25.477Z,265
2019-03-11T10:15:25.795Z,270
2019-03-11T10:16:26.229Z,280
2019-03-11T10:17:25.443Z,275
2019-03-11T10:18:25.453Z,290
2019-03-11T10:19:25.429Z,300
2019-03-11T10:20:26.013Z,300
2019-03-11T10:21:25.935Z,300
2019-03-11T10:22:25.662Z,320
2019-03-11T10:23:36.514Z,320
2019-03-11T10:24:25.909Z,310
2019-03-11T10:25:25.476Z,335
2019-03-11T10:26:26.159Z,330
2019-03-11T10:27:25.892Z,335
2019-03-11T10:28:25.885Z,315
2019-03-11T10:29:25.852Z,325
2019-03-11T10:30:26.222Z,360
2019-03-11T10:31:25.865Z,355
2019-03-11T10:32:26.097Z,345
2019-03-11T10:33:25.849Z,340
2019-03-11T10:34:25.840Z,355
2019-03-11T10:35:40.290Z,325
2019-03-11T10:36:25.829Z,315
2019-03-11T10:37:26.063Z,320
2019-03-11T10:38:25.579Z,315
2019-03-11T10:39:27.613Z,295
2019-03-11T10:40:25.949Z,290
2019-03-11T10:41:25.887Z,270
2019-03-11T10:42:25.300Z,260
2019-03-11T10:43:26.012Z,235
2019-03-11T10:44:25.578Z,250
2019-03-11T10:45:37.009Z,270
2019-03-11T10:46:25.770Z,280
2019-03-11T10:47:25.587Z,285
2019-03-11T10:48:36.214Z,290
2019-03-11T10:49:27.430Z,280
2019-03-11T10:50:25.622Z,285
2019-03-11T10:51:25.488Z,275
2019-03-11T10:52:25.476Z,270
2019-03-11T10:53:25.987Z,265
2019-03-11T10:54:25.481Z,275
2019-03-11T10:55:26.257Z,285
2019-03-11T10:56:25.473Z,280
2019-03-11T10:57:25.450Z,285
2019-03-11T10:58:25.685Z,295
2019-03-11T10:59:25.719Z,305
2019-03-11T11:00:25.432Z,325
2019-03-11T11:01:25.195Z,350
2019-03-11T11:02:25.912Z,340
2019-03-11T11:03:25.411Z,355
2019-03-11T11:04:25.666Z,325
2019-03-11T11:05:25.744Z,315
2019-03-11T11:06:26.926Z,305
2019-03-11T11:07:25.390Z,310
2019-03-11T11:08:25.368Z,310
2019-03-11T11:09:27.308Z,315
2019-03-11T11:10:25.576Z,330
2019-03-11T11:11:25.611Z,335
2019-03-11T11:12:25.396Z,330
2019-03-11T11:13:25.831Z,305
2019-03-11T11:14:24.847Z,275
2019-03-11T11:15:25.381Z,225
2019-03-11T11:16:25.592Z,180
2019-03-11T11:17:25.331Z,150
2019-03-11T11:18:25.295Z,125
2019-03-11T11:19:25.364Z,110
2019-03-11T11:20:25.056Z,145
2019-03-11T11:21:25.795Z,180
2019-03-11T11:22:25.317Z,160
2019-03-11T11:23:25.534Z,165
2019-03-11T11:24:25.521Z,210
2019-03-11T11:25:25.775Z,250
2019-03-11T11:26:25.535Z,270
2019-03-11T11:27:25.265Z,300
2019-03-11T11:28:25.268Z,270
2019-03-11T11:29:25.283Z,270
2019-03-11T11:30:25.598Z,250
2019-03-11T11:31:25.820Z,255
2019-03-11T11:32:25.245Z,255
2019-03-11T11:33:25.487Z,260
2019-03-11T11:34:25.698Z,275
2019-03-11T11:35:24.991Z,275
2019-03-11T11:36:25.515Z,275
2019-03-11T11:37:25.466Z,270
2019-03-11T11:38:25.425Z,265
2019-03-11T11:39:25.688Z,270
2019-03-11T11:40:29.805Z,270
2019-03-11T11:41:25.827Z,260
2019-03-11T11:42:25.389Z,250
2019-03-11T11:43:25.189Z,275
2019-03-11T11:44:25.653Z,280
2019-03-11T11:45:25.260Z,265
2019-03-11T11:46:25.633Z,265
2019-03-11T11:47:25.634Z,270
2019-03-11T11:48:25.141Z,270
2019-03-11T11:49:25.639Z,270
2019-03-11T11:50:25.484Z,255
2019-03-11T11:51:25.380Z,225
2019-03-11T11:52:25.100Z,215
2019-03-11T11:53:27.458Z,225
2019-03-11T11:54:25.331Z,215
2019-03-11T11:55:25.336Z,240
2019-03-11T11:56:25.354Z,230
2019-03-11T11:57:24.854Z,215
2019-03-11T11:58:25.572Z,210
2019-03-11T11:59:25.050Z,210
2019-03-11T12:00:25.589Z,190
2019-03-11T12:01:25.295Z,230
2019-03-11T12:02:25.524Z,240
2019-03-11T12:03:25.522Z,255
2019-03-11T12:04:25.280Z,255
2019-03-11T12:05:25.339Z,245
2019-03-11T12:06:25.497Z,285
2019-03-11T12:07:25.848Z,290
2019-03-11T12:08:25.262Z,295
2019-03-11T12:09:25.228Z,265
2019-03-11T12:10:27.107Z,250
2019-03-11T12:11:24.985Z,235
2019-03-11T12:12:25.468Z,235
2019-03-11T12:13:25.226Z,245
2019-03-11T12:14:25.477Z,240
2019-03-11T12:15:25.281Z,240
2019-03-11T12:16:25.479Z,240
2019-03-11T12:17:28.229Z,220
2019-03-11T12:18:25.521Z,210
2019-03-11T12:19:25.464Z,210
2019-03-11T12:20:25.205Z,220
2019-03-11T12:21:25.409Z,265
2019-03-11T12:22:25.399Z,270
2019-03-11T12:23:25.152Z,280
2019-03-11T12:24:25.380Z,285
2019-03-11T12:25:25.503Z,285
2019-03-11T12:26:25.134Z,280
2019-03-11T12:27:25.113Z,275
2019-03-11T12:28:25.129Z,260
2019-03-11T12:29:27.856Z,250
2019-03-11T12:30:25.171Z,250
2019-03-11T12:31:26.604Z,250
2019-03-11T12:32:25.353Z,260
2019-03-11T12:33:27.643Z,270
2019-03-11T12:34:25.350Z,230
2019-03-11T12:35:25.162Z,245
2019-03-11T12:36:24.821Z,250
2019-03-11T12:37:24.816Z,245
2019-03-11T12:38:24.796Z,230
2019-03-11T12:39:25.059Z,195
2019-03-11T12:40:26.176Z,215
2019-03-11T12:41:24.557Z,225
2019-03-11T12:42:25.355Z,180
2019-03-11T12:43:24.786Z,225
2019-03-11T12:44:25.040Z,215
2019-03-11T12:45:25.081Z,175
2019-03-11T12:46:25.251Z,175
2019-03-11T12:47:25.248Z,185
2019-03-11T12:48:24.747Z,185
2019-03-11T12:49:25.257Z,185
2019-03-11T12:50:25.028Z,195
2019-03-11T12:51:24.973Z,200
2019-03-11T12:52:24.726Z,220
2019-03-11T12:53:24.968Z,260
2019-03-11T12:54:24.961Z,270
2019-03-11T12:55:26.579Z,225
2019-03-11T12:56:24.697Z,220
2019-03-11T12:57:24.952Z,220
2019-03-11T12:58:24.956Z,230
2019-03-11T12:59:25.000Z,230
2019-03-11T13:00:24.771Z,240
2019-03-11T13:01:24.667Z,285
2019-03-11T13:02:25.172Z,295
2019-03-11T13:03:24.670Z,300
2019-03-11T13:04:24.642Z,305
2019-03-11T13:05:24.915Z,310
2019-03-11T13:06:24.890Z,315
2019-03-11T13:07:24.892Z,315
2019-03-11T13:08:24.857Z,305
2019-03-11T13:09:24.627Z,270
2019-03-11T13:10:24.398Z,300
2019-03-11T13:11:24.859Z,295
2019-03-11T13:12:25.105Z,305
2019-03-11T13:13:26.175Z,280
2019-03-11T13:14:24.611Z,295
2019-03-11T13:15:24.848Z,285
2019-03-11T13:16:24.833Z,250
2019-03-11T13:17:24.833Z,230
2019-03-11T13:18:24.778Z,225
2019-03-11T13:19:25.696Z,240
2019-03-11T13:20:24.376Z,260
2019-03-11T13:21:25.108Z,240
2019-03-11T13:22:25.045Z,235
2019-03-11T13:23:24.873Z,235
2019-03-11T13:24:24.351Z,225
2019-03-11T13:25:24.867Z,205
2019-03-11T13:26:24.279Z,190
2019-03-11T13:27:24.782Z,205
2019-03-11T13:28:24.813Z,200
2019-03-11T13:29:24.275Z,205
2019-03-11T13:30:24.834Z,200
2019-03-11T13:31:24.244Z,200
2019-03-11T13:32:27.018Z,215
2019-03-11T13:33:24.528Z,205
2019-03-11T13:34:24.994Z,205
2019-03-11T13:35:24.925Z,225
2019-03-11T13:36:24.651Z,230
2019-03-11T13:37:24.725Z,240
2019-03-11T13:38:24.695Z,260
2019-03-11T13:39:24.956Z,255
2019-03-11T13:40:24.521Z,240
2019-03-11T13:41:25.164Z,250
2019-03-11T13:42:24.691Z,245
2019-03-11T13:43:24.690Z,225
2019-03-11T13:44:24.654Z,230
2019-03-11T13:45:24.462Z,235
2019-03-11T13:46:24.675Z,205
2019-03-11T13:47:24.182Z,215
2019-03-11T13:48:24.657Z,215
2019-03-11T13:49:24.921Z,210
2019-03-11T13:50:25.027Z,205
2019-03-11T13:51:24.114Z,220
2019-03-11T13:52:24.127Z,230
2019-03-11T13:53:24.597Z,235
2019-03-11T13:54:24.620Z,240
2019-03-11T13:55:24.587Z,235
2019-03-11T13:56:24.129Z,225
2019-03-11T13:57:24.329Z,220
2019-03-11T13:58:24.577Z,215
2019-03-11T13:59:24.124Z,215
2019-03-11T14:00:24.887Z,210
2019-03-11T14:01:25.882Z,210
2019-03-11T14:02:24.331Z,240
2019-03-11T14:03:24.612Z,195
2019-03-11T14:04:24.286Z,210
2019-03-11T14:05:24.814Z,175
2019-03-11T14:06:24.279Z,170
2019-03-11T14:07:24.526Z,165
2019-03-11T14:08:24.276Z,195
2019-03-11T14:09:24.543Z,195
2019-03-11T14:10:24.304Z,225
2019-03-11T14:11:29.052Z,195
2019-03-11T14:12:24.736Z,185
2019-03-11T14:13:25.443Z,180
2019-03-11T14:14:24.477Z,190
2019-03-11T14:15:24.601Z,195
2019-03-11T14:16:24.714Z,205